Terminal Aerodrome Forecast
Issued by NWS

Current Version | Previous Version | Text Only | Print | Product List | Glossary On
Versions: 1 2 3 4 5 6 7 8 9 10 11 12 13 14 15
000
FTUS45 KTFX 191143
TAFLWT
TAF
KLWT 191143Z 1912/2012 13005KT P6SM SCT100 BKN150
     FM191700 22008KT P6SM SCT080 BKN130 PROB30 2004/2009 4SM
      -SHRASN BKN040=

USA.gov is the U.S. government's official web portal to all federal, state and local government web resources and services.